createdAt,value
2023-10-21T00:02:02.273Z,6.28
2023-10-21T00:04:30.011Z,7.10
2023-10-21T00:06:57.801Z,7.15
2023-10-21T00:09:25.467Z,6.38
2023-10-21T00:11:53.499Z,5.72
2023-10-21T00:14:21.232Z,5.22
2023-10-21T00:16:51.136Z,4.93
2023-10-21T00:19:18.856Z,6.60
2023-10-21T00:21:46.569Z,6.40
2023-10-21T00:24:14.314Z,5.18
2023-10-21T00:26:46.116Z,5.40
2023-10-21T00:29:13.837Z,5.25
2023-10-21T00:31:41.644Z,4.32
2023-10-21T00:34:10.812Z,4.30
2023-10-21T00:36:38.561Z,4.32
2023-10-21T00:39:11.841Z,4.40
2023-10-21T00:41:39.872Z,4.15
2023-10-21T00:44:07.891Z,4.72
2023-10-21T00:46:36.258Z,4.18
2023-10-21T00:49:05.675Z,4.57
2023-10-21T00:51:34.849Z,4.65
2023-10-21T00:54:03.008Z,3.88
2023-10-21T00:56:30.893Z,4.97
2023-10-21T00:58:58.626Z,4.03
2023-10-21T01:01:26.436Z,5.18
2023-10-21T01:03:54.321Z,4.32
2023-10-21T01:06:22.153Z,4.22
2023-10-21T01:08:51.343Z,4.28
2023-10-21T01:11:19.278Z,3.85
2023-10-21T01:13:47.166Z,4.35
2023-10-21T01:16:14.974Z,4.40
2023-10-21T01:18:44.071Z,4.28
2023-10-21T01:21:12.086Z,4.78
2023-10-21T01:23:41.708Z,4.80
2023-10-21T01:28:37.105Z,4.60
2023-10-21T01:31:04.904Z,4.45
2023-10-21T01:33:32.878Z,4.70
2023-10-21T01:36:00.789Z,4.90
2023-10-21T01:38:28.556Z,4.15
2023-10-21T01:40:57.665Z,5.40
2023-10-21T01:43:25.425Z,4.57
2023-10-21T01:45:53.197Z,5.57
2023-10-21T01:48:20.921Z,5.78
2023-10-21T01:50:48.979Z,5.03
2023-10-21T01:53:16.884Z,5.50
2023-10-21T01:55:44.573Z,6.20
2023-10-21T01:58:13.835Z,4.90
2023-10-21T02:00:41.556Z,5.78
2023-10-21T02:03:09.356Z,5.15
2023-10-21T02:05:39.491Z,5.45
2023-10-21T02:08:07.388Z,4.50
2023-10-21T02:10:36.593Z,5.22
2023-10-21T02:13:04.689Z,5.47
2023-10-21T02:15:37.607Z,5.50
2023-10-21T02:18:09.440Z,5.00
2023-10-21T02:20:38.536Z,5.60
2023-10-21T02:23:06.336Z,5.10
2023-10-21T02:25:34.502Z,5.45
2023-10-21T02:28:02.618Z,5.38
2023-10-21T02:30:31.221Z,4.93
2023-10-21T02:33:01.709Z,5.43
2023-10-21T02:35:29.460Z,4.97
2023-10-21T02:37:57.172Z,5.45
2023-10-21T02:40:24.931Z,4.75
2023-10-21T02:42:52.654Z,5.13
2023-10-21T02:45:20.403Z,4.80
2023-10-21T02:47:49.588Z,4.55
2023-10-21T02:50:18.817Z,4.63
2023-10-21T02:52:46.551Z,4.85
2023-10-21T02:55:14.414Z,4.97
2023-10-21T02:57:42.657Z,5.35
2023-10-21T03:00:16.802Z,5.05
2023-10-21T03:02:44.910Z,5.25
2023-10-21T03:05:12.774Z,5.00
2023-10-21T03:07:41.856Z,4.72
2023-10-21T03:10:10.373Z,4.60
2023-10-21T03:12:38.070Z,4.13
2023-10-21T03:15:07.820Z,3.90
2023-10-21T03:17:35.731Z,4.45
2023-10-21T03:20:03.515Z,4.25
2023-10-21T03:22:31.209Z,4.18
2023-10-21T03:25:00.279Z,4.40
2023-10-21T03:27:28.058Z,3.42
2023-10-21T03:29:55.968Z,3.95
2023-10-21T03:32:23.748Z,3.40
2023-10-21T03:34:51.545Z,3.28
2023-10-21T03:37:19.188Z,3.63
2023-10-21T03:39:46.865Z,3.47
2023-10-21T03:42:15.982Z,3.97
2023-10-21T03:44:43.705Z,3.55
2023-10-21T03:47:11.429Z,3.70
2023-10-21T03:49:39.135Z,3.50
2023-10-21T03:52:07.570Z,3.25
2023-10-21T03:54:35.488Z,3.47
2023-10-21T03:57:04.112Z,3.65
2023-10-21T03:59:33.767Z,3.33
2023-10-21T04:02:01.541Z,3.13
2023-10-21T04:04:29.259Z,3.67
2023-10-21T04:06:57.069Z,3.60
2023-10-21T04:09:26.355Z,3.60
2023-10-21T04:11:54.225Z,4.05
2023-10-21T04:14:22.104Z,3.92
2023-10-21T04:16:51.173Z,3.55
2023-10-21T04:19:18.938Z,4.20
2023-10-21T04:21:46.756Z,4.15
2023-10-21T04:24:16.356Z,4.20
2023-10-21T04:26:44.217Z,4.75
2023-10-21T04:29:11.904Z,3.90
2023-10-21T04:31:40.499Z,4.45
2023-10-21T04:34:09.617Z,4.32
2023-10-21T04:36:37.302Z,4.47
2023-10-21T04:39:05.152Z,5.20
2023-10-21T04:41:32.940Z,4.95
2023-10-21T04:44:00.644Z,5.50
2023-10-21T04:46:28.427Z,4.53
2023-10-21T04:48:56.975Z,5.25
2023-10-21T04:51:26.153Z,5.45
2023-10-21T04:53:53.977Z,5.43
2023-10-21T04:56:21.732Z,5.30
2023-10-21T04:58:49.515Z,5.70
2023-10-21T05:01:17.759Z,5.50
2023-10-21T05:03:45.808Z,5.50
2023-10-21T05:06:13.765Z,5.82
2023-10-21T05:08:42.972Z,6.32
2023-10-21T05:11:10.705Z,6.40
2023-10-21T05:13:38.361Z,5.93
2023-10-21T05:16:06.119Z,5.95
2023-10-21T05:18:33.870Z,6.53
2023-10-21T05:21:01.731Z,5.80
2023-10-21T05:23:29.547Z,5.95
2023-10-21T05:25:59.708Z,6.65
2023-10-21T05:28:27.478Z,6.03
2023-10-21T05:30:55.366Z,7.13
2023-10-21T05:33:23.268Z,7.25
2023-10-21T05:35:51.067Z,8.40
2023-10-21T05:38:18.814Z,7.03
2023-10-21T05:40:47.420Z,8.18
2023-10-21T05:43:16.456Z,8.40
2023-10-21T05:45:45.039Z,8.80
2023-10-21T05:48:13.031Z,8.40
2023-10-21T05:50:40.860Z,8.60
2023-10-21T05:53:08.859Z,9.07
2023-10-21T05:55:42.491Z,8.02
2023-10-21T05:58:10.569Z,8.80
2023-10-21T06:00:39.788Z,8.95
2023-10-21T06:03:07.619Z,10.15
2023-10-21T06:05:35.540Z,8.85
2023-10-21T06:08:03.702Z,9.98
2023-10-21T06:10:31.438Z,8.63
2023-10-21T06:12:59.148Z,9.43
2023-10-21T06:15:26.931Z,9.50
2023-10-21T06:17:56.333Z,9.45
2023-10-21T06:20:25.300Z,8.82
2023-10-21T06:22:53.026Z,9.40
2023-10-21T06:25:20.789Z,10.15
2023-10-21T06:27:48.562Z,9.75
2023-10-21T06:30:16.605Z,9.68
2023-10-21T06:32:44.415Z,9.73
2023-10-21T06:35:13.598Z,9.90
2023-10-21T06:37:41.659Z,10.10
2023-10-21T06:40:10.085Z,9.27
2023-10-21T06:42:37.950Z,9.68
2023-10-21T06:45:06.242Z,9.40
2023-10-21T06:47:35.128Z,8.68
2023-10-21T06:50:03.753Z,9.35
2023-10-21T06:52:33.315Z,9.40
2023-10-21T06:55:01.640Z,8.77
2023-10-21T06:59:58.002Z,8.45
2023-10-21T07:02:25.703Z,9.27
2023-10-21T07:04:53.582Z,8.93
2023-10-21T07:07:21.358Z,9.63
2023-10-21T07:09:50.490Z,8.77
2023-10-21T07:12:18.241Z,9.27
2023-10-21T07:14:46.067Z,9.75
2023-10-21T07:17:15.017Z,8.88
2023-10-21T07:19:43.052Z,9.07
2023-10-21T07:22:12.274Z,8.32
2023-10-21T07:24:41.104Z,7.47
2023-10-21T07:27:10.208Z,7.32
2023-10-21T07:29:37.906Z,6.78
2023-10-21T07:32:06.549Z,6.90
2023-10-21T07:34:34.451Z,6.65
2023-10-21T07:37:02.266Z,6.30
2023-10-21T07:39:29.011Z,5.70
2023-10-21T07:41:57.348Z,6.90
2023-10-21T07:44:29.292Z,5.95
2023-10-21T07:46:57.000Z,5.68
2023-10-21T07:49:25.344Z,5.63
2023-10-21T07:51:53.226Z,5.78
2023-10-21T07:54:20.973Z,5.22
2023-10-21T07:56:50.981Z,5.88
2023-10-21T07:59:18.955Z,5.60
2023-10-21T08:01:48.105Z,4.57
2023-10-21T08:04:15.933Z,4.80
2023-10-21T08:06:45.395Z,4.82
2023-10-21T08:09:15.541Z,4.55
2023-10-21T08:11:44.268Z,4.45
2023-10-21T08:14:12.287Z,4.40
2023-10-21T08:16:40.170Z,3.92
2023-10-21T08:19:09.745Z,3.80
2023-10-21T08:21:37.612Z,3.72
2023-10-21T08:24:06.120Z,4.25
2023-10-21T08:26:33.974Z,3.90
2023-10-21T08:29:02.080Z,3.20
2023-10-21T08:31:29.885Z,2.85
2023-10-21T08:33:57.955Z,2.13
2023-10-21T08:36:27.686Z,2.45
2023-10-21T08:38:55.738Z,2.08
2023-10-21T08:41:23.832Z,1.55
2023-10-21T08:43:52.194Z,1.85
2023-10-21T08:46:20.622Z,1.77
2023-10-21T08:48:49.611Z,1.70
2023-10-21T08:51:21.296Z,1.65
2023-10-21T08:53:54.312Z,1.20
2023-10-21T08:56:22.538Z,1.27
2023-10-21T08:58:50.319Z,0.90
2023-10-21T09:01:18.076Z,0.70
2023-10-21T09:03:45.907Z,0.70
2023-10-21T09:06:14.228Z,0.98
2023-10-21T09:08:43.363Z,0.70
2023-10-21T09:11:14.199Z,0.73
2023-10-21T09:13:43.012Z,1.20
2023-10-21T09:16:21.824Z,0.70
2023-10-21T09:19:04.856Z,0.85
2023-10-21T09:21:34.434Z,1.17
2023-10-21T09:24:02.980Z,0.70
2023-10-21T09:26:36.543Z,0.77
2023-10-21T09:29:08.958Z,1.13
2023-10-21T09:31:49.160Z,2.08
2023-10-21T09:34:27.182Z,1.20
2023-10-21T09:36:56.153Z,1.35
2023-10-21T09:39:24.914Z,1.20
2023-10-21T09:44:21.775Z,1.00
2023-10-21T09:46:50.568Z,1.25
2023-10-21T09:49:19.018Z,1.35
2023-10-21T09:51:51.642Z,1.65
2023-10-21T09:54:25.599Z,1.48
2023-10-21T09:56:55.467Z,1.70
2023-10-21T09:59:24.325Z,1.00
2023-10-21T10:01:53.208Z,1.15
2023-10-21T10:04:22.832Z,0.88
2023-10-21T10:07:05.146Z,0.20
2023-10-21T10:09:34.746Z,0.10
2023-10-21T10:12:08.281Z,0.10
2023-10-21T10:14:36.162Z,0.50
2023-10-21T10:17:06.969Z,0.10
2023-10-21T10:19:38.515Z,0.08
2023-10-21T10:22:20.030Z,0.10
2023-10-21T10:24:52.855Z,0.30
2023-10-21T10:27:23.367Z,1.20
2023-10-21T10:29:52.062Z,0.15
2023-10-21T10:32:21.443Z,0.35
2023-10-21T10:34:54.384Z,0.20
2023-10-21T10:37:35.282Z,0.10
2023-10-21T10:40:06.461Z,0.50
2023-10-21T10:42:37.017Z,0.60
2023-10-21T13:46:07.481Z,0.20
2023-10-21T13:48:35.600Z,0.08
2023-10-21T13:51:08.111Z,0.10
2023-10-21T13:53:36.124Z,0.10
2023-10-21T13:56:07.625Z,0.35
2023-10-21T13:58:35.635Z,0.10
2023-10-21T14:01:10.489Z,0.08
2023-10-21T14:03:38.961Z,0.65
2023-10-21T14:06:07.093Z,0.20
2023-10-21T14:08:35.107Z,0.35
2023-10-21T14:11:07.382Z,0.20
2023-10-21T14:13:35.448Z,0.40
2023-10-21T14:16:07.356Z,0.32
2023-10-21T14:18:35.517Z,0.40
2023-10-21T14:21:03.368Z,0.25
2023-10-21T14:23:31.281Z,0.20
2023-10-21T14:26:00.618Z,0.20
2023-10-21T14:28:29.332Z,0.32
2023-10-21T14:30:59.610Z,0.40
2023-10-21T14:33:29.975Z,0.30
2023-10-21T14:35:59.152Z,0.20
2023-10-21T14:38:28.439Z,0.60
2023-10-21T14:43:15.339Z,0.47
2023-10-21T14:45:44.186Z,0.40
2023-10-21T14:48:12.371Z,0.20
2023-10-21T14:50:42.987Z,0.47
2023-10-21T14:53:11.773Z,0.43
2023-10-21T22:51:19.180Z,0.35
2023-10-21T22:53:46.956Z,0.10
2023-10-21T22:56:14.712Z,0.20
2023-10-21T22:58:43.391Z,0.20
2023-10-21T23:01:11.950Z,0.40
2023-10-21T23:03:40.337Z,0.20
2023-10-21T23:06:08.294Z,0.25
2023-10-21T23:08:39.621Z,0.43
2023-10-21T23:11:09.929Z,0.28
2023-10-21T23:13:38.787Z,0.30
2023-10-21T23:16:07.092Z,0.30
2023-10-21T23:18:35.268Z,0.15
2023-10-21T23:21:03.113Z,0.52
2023-10-21T23:23:30.854Z,0.30
2023-10-21T23:26:00.486Z,0.55
2023-10-21T23:28:28.924Z,0.30
2023-10-21T23:30:56.847Z,0.20
2023-10-21T23:33:24.618Z,0.30
2023-10-21T23:35:52.373Z,0.17
2023-10-21T23:38:20.039Z,0.10
2023-10-21T23:40:49.370Z,0.32
2023-10-21T23:43:18.429Z,0.30
2023-10-21T23:45:47.255Z,0.20
2023-10-21T23:48:15.673Z,0.38
2023-10-21T23:50:43.498Z,0.20
2023-10-21T23:53:11.310Z,0.20
2023-10-21T23:55:39.079Z,0.30
2023-10-21T23:58:07.449Z,0.30
